Time;durP1;ratioP1;P1;durP2;ratioP2;P2;SDS_P1;SDS_P2;PMS_P1;PMS_P2;Temp;Humidity;BMP_temperature;BMP_pressure;BME280_temperature;BME280_humidity;BME280_pressure;Samples;Min_cycle;Max_cycle;Signal;HPM_P1;HPM_P2
2021/12/11 00:01:02;;;;;;;10.27;8.23;;;10.00;91.40;;;;;;5084638;28;20016;-57
2021/12/11 00:03:39;;;;;;;11.15;8.52;;;9.90;91.40;;;;;;5084710;28;20027;-55
2021/12/11 00:06:15;;;;;;;10.70;7.70;;;9.80;90.80;;;;;;5085583;28;20020;-58
2021/12/11 00:08:43;;;;;;;12.45;8.43;;;9.60;91.00;;;;;;5086154;28;20047;-57
2021/12/11 00:11:16;;;;;;;15.90;9.80;;;9.50;91.10;;;;;;5083434;28;20483;-54
2021/12/11 00:13:43;;;;;;;12.02;9.35;;;9.40;91.20;;;;;;5082784;28;20020;-57
2021/12/11 00:16:13;;;;;;;12.00;9.48;;;9.30;91.60;;;;;;5084378;28;20028;-54
2021/12/11 00:18:40;;;;;;;11.60;9.00;;;9.30;92.10;;;;;;5086353;28;20016;-57
2021/12/11 00:21:14;;;;;;;12.82;10.48;;;9.20;91.90;;;;;;5082377;28;20020;-58
2021/12/11 00:23:51;;;;;;;13.57;9.80;;;9.20;92.20;;;;;;5084432;28;20048;-58
2021/12/11 00:26:24;;;;;;;11.65;9.50;;;9.30;92.80;;;;;;5083583;28;20024;-58
2021/12/11 00:28:52;;;;;;;13.70;11.15;;;9.40;92.70;;;;;;5087903;28;20048;-58
2021/12/11 00:31:19;;;;;;;13.15;10.85;;;9.40;92.30;;;;;;5084469;28;20060;-57
2021/12/11 00:33:46;;;;;;;16.63;11.57;;;9.40;92.20;;;;;;5082618;28;20036;-59
2021/12/11 00:36:16;;;;;;;13.23;10.75;;;9.40;92.10;;;;;;5082210;28;20032;-58
2021/12/11 00:38:43;;;;;;;15.63;11.35;;;9.30;92.00;;;;;;5085053;28;20028;-55
2021/12/11 00:41:11;;;;;;;13.65;10.07;;;9.20;92.00;;;;;;5081667;28;20056;-57
2021/12/11 00:43:40;;;;;;;14.10;10.20;;;9.20;92.10;;;;;;5085004;28;20103;-59
2021/12/11 00:46:23;;;;;;;13.60;9.40;;;9.10;92.10;;;;;;5081868;28;20071;-59
2021/12/11 00:48:49;;;;;;;12.50;9.60;;;9.10;92.10;;;;;;5084004;28;20404;-59
2021/12/11 00:51:20;;;;;;;12.88;9.40;;;9.10;92.20;;;;;;5085478;28;20035;-58
2021/12/11 00:53:53;;;;;;;13.60;9.85;;;9.10;92.20;;;;;;5080373;28;20024;-58
2021/12/11 00:56:27;;;;;;;13.68;10.52;;;9.00;92.30;;;;;;5082559;28;20069;-59
2021/12/11 00:58:55;;;;;;;14.68;11.05;;;9.00;92.40;;;;;;5088647;28;20487;-57
2021/12/11 01:01:25;;;;;;;15.82;11.55;;;9.00;92.50;;;;;;5082486;28;20028;-59
2021/12/11 01:03:54;;;;;;;12.77;10.05;;;9.00;92.40;;;;;;5084800;28;20017;-59
2021/12/11 01:06:22;;;;;;;15.05;10.90;;;8.90;92.60;;;;;;5079796;28;20476;-59
2021/12/11 01:09:00;;;;;;;11.88;10.27;;;8.80;92.70;;;;;;5085430;28;20500;-55
2021/12/11 01:11:36;;;;;;;13.65;11.20;;;8.80;92.90;;;;;;5087681;28;20435;-58
2021/12/11 01:14:28;;;;;;;13.90;10.82;;;8.80;93.00;;;;;;5085638;28;20040;-59
2021/12/11 01:17:00;;;;;;;14.48;11.30;;;8.80;92.80;;;;;;5083347;28;20052;-58
2021/12/11 01:19:28;;;;;;;16.00;12.43;;;8.80;92.80;;;;;;5080443;28;20089;-58
2021/12/11 01:22:00;;;;;;;18.80;13.13;;;8.70;92.70;;;;;;5083421;28;20040;-56
2021/12/11 01:24:44;;;;;;;19.65;13.48;;;8.60;92.80;;;;;;5085510;28;20020;-58
2021/12/11 01:27:25;;;;;;;17.60;12.70;;;8.50;92.90;;;;;;5081433;28;20032;-58
2021/12/11 01:29:56;;;;;;;20.10;14.20;;;8.40;93.10;;;;;;5085491;28;20376;-55
2021/12/11 01:32:24;;;;;;;18.83;13.35;;;8.40;93.20;;;;;;5084445;28;20480;-59
2021/12/11 01:34:50;;;;;;;18.50;12.85;;;8.30;93.30;;;;;;5082019;28;20020;-57
2021/12/11 01:37:16;;;;;;;20.02;13.50;;;8.30;93.60;;;;;;5084161;28;20025;-56
2021/12/11 01:39:42;;;;;;;29.98;14.32;;;8.20;93.70;;;;;;5081582;28;20350;-58
2021/12/11 01:42:19;;;;;;;19.30;14.07;;;8.20;93.80;;;;;;5084317;28;20077;-57
2021/12/11 01:44:46;;;;;;;17.08;12.38;;;8.20;93.90;;;;;;5079110;28;20024;-58
2021/12/11 01:47:15;;;;;;;17.55;13.30;;;8.20;93.90;;;;;;5083708;28;20081;-59
2021/12/11 01:49:44;;;;;;;18.33;12.43;;;8.20;93.90;;;;;;5083304;28;20468;-59
2021/12/11 01:52:39;;;;;;;20.45;13.82;;;8.20;93.90;;;;;;5082153;28;20020;-57
2021/12/11 01:55:12;;;;;;;19.65;13.15;;;8.20;93.90;;;;;;5083741;28;20122;-59
2021/12/11 01:57:38;;;;;;;19.13;14.30;;;8.20;93.90;;;;;;5081451;28;20063;-59
2021/12/11 02:00:19;;;;;;;23.30;15.95;;;8.20;94.00;;;;;;5084279;28;20048;-58
2021/12/11 02:02:50;;;;;;;19.83;14.48;;;8.10;94.00;;;;;;5082016;28;20070;-58
2021/12/11 02:05:22;;;;;;;18.65;13.77;;;8.10;94.00;;;;;;5082985;28;20031;-57
2021/12/11 02:07:51;;;;;;;18.58;13.57;;;8.10;94.00;;;;;;5083583;28;20023;-57
2021/12/11 02:10:24;;;;;;;18.83;13.27;;;8.00;94.00;;;;;;5083602;28;20028;-57
2021/12/11 02:12:51;;;;;;;19.80;13.27;;;8.00;94.10;;;;;;5081922;28;20101;-56
2021/12/11 02:15:29;;;;;;;17.15;13.43;;;8.00;94.20;;;;;;5084654;28;20475;-58
2021/12/11 02:18:09;;;;;;;20.67;12.65;;;8.00;94.10;;;;;;5079904;28;20021;-59
2021/12/11 02:20:42;;;;;;;21.02;14.15;;;8.00;94.20;;;;;;5071915;28;20009;-58
2021/12/11 02:23:08;;;;;;;17.48;12.52;;;7.90;94.30;;;;;;5072452;28;20083;-58
2021/12/11 02:25:39;;;;;;;18.88;12.98;;;7.90;94.40;;;;;;5072569;28;20040;-59
2021/12/11 02:28:08;;;;;;;17.83;13.70;;;7.90;94.40;;;;;;5072858;28;20024;-56
2021/12/11 02:30:39;;;;;;;17.85;13.07;;;7.90;94.50;;;;;;5072587;28;20119;-58
2021/12/11 02:33:08;;;;;;;19.13;13.13;;;7.90;94.60;;;;;;5089320;28;20059;-58
2021/12/11 02:35:37;;;;;;;19.60;13.35;;;7.90;94.60;;;;;;5091051;28;20047;-57
2021/12/11 02:38:35;;;;;;;21.23;14.23;;;7.90;94.40;;;;;;5084473;28;20114;-57
2021/12/11 02:41:11;;;;;;;22.05;13.90;;;7.90;94.30;;;;;;5083910;28;20035;-59
2021/12/11 02:43:44;;;;;;;18.85;14.13;;;7.80;94.50;;;;;;5081135;28;20035;-59
2021/12/11 02:46:30;;;;;;;19.38;14.32;;;7.80;94.40;;;;;;5083456;28;20028;-58
2021/12/11 02:49:00;;;;;;;21.88;14.25;;;7.70;94.70;;;;;;5081899;28;20039;-58
2021/12/11 02:51:35;;;;;;;19.95;13.40;;;7.60;94.60;;;;;;5081654;28;20055;-59
2021/12/11 02:54:13;;;;;;;21.67;14.82;;;7.70;94.60;;;;;;5079969;28;20524;-57
2021/12/11 02:56:50;;;;;;;22.17;14.55;;;7.60;94.90;;;;;;5084379;28;20024;-57
2021/12/11 02:59:20;;;;;;;19.90;13.20;;;7.60;94.90;;;;;;5081258;28;20064;-58
2021/12/11 03:01:56;;;;;;;22.05;15.10;;;7.60;95.00;;;;;;5079761;28;20067;-57
2021/12/11 03:04:32;;;;;;;20.60;14.05;;;7.50;95.10;;;;;;5083891;28;20028;-58
2021/12/11 03:07:00;;;;;;;23.30;15.10;;;7.50;95.00;;;;;;5084858;28;20108;-59
2021/12/11 03:09:29;;;;;;;21.67;14.10;;;7.60;95.10;;;;;;5083994;28;20118;-58
2021/12/11 03:11:59;;;;;;;19.83;14.68;;;7.60;95.00;;;;;;5085967;28;20403;-55
2021/12/11 03:14:26;;;;;;;25.08;15.23;;;7.60;94.90;;;;;;5085771;28;20039;-58
2021/12/11 03:16:52;;;;;;;21.55;14.48;;;7.60;94.90;;;;;;5085519;28;20420;-57
2021/12/11 03:19:22;;;;;;;23.83;16.20;;;7.60;95.00;;;;;;5086352;28;20368;-57
2021/12/11 03:21:49;;;;;;;22.35;15.15;;;7.60;95.00;;;;;;5085355;28;20123;-56
2021/12/11 03:24:16;;;;;;;19.10;13.73;;;7.60;95.00;;;;;;5083790;28;20376;-58
2021/12/11 03:26:45;;;;;;;22.85;15.48;;;7.60;95.00;;;;;;5085818;28;20020;-57
2021/12/11 03:29:11;;;;;;;19.30;13.38;;;7.60;95.00;;;;;;5085508;28;20043;-58
2021/12/11 03:31:37;;;;;;;18.95;13.68;;;7.60;95.10;;;;;;5083667;28;20020;-59
2021/12/11 03:34:08;;;;;;;21.52;14.43;;;7.70;95.10;;;;;;5085696;28;20024;-56
2021/12/11 03:36:35;;;;;;;23.60;16.20;;;7.70;95.10;;;;;;5083707;28;20423;-59
2021/12/11 03:39:15;;;;;;;22.30;14.77;;;7.70;95.20;;;;;;5086284;28;20017;-55
2021/12/11 03:41:42;;;;;;;21.38;14.82;;;7.70;95.20;;;;;;5083606;28;20119;-59
2021/12/11 03:44:09;;;;;;;22.50;16.05;;;7.70;95.10;;;;;;5085894;28;20386;-59
2021/12/11 03:46:36;;;;;;;26.75;17.27;;;7.80;95.10;;;;;;5081135;28;20028;-56
2021/12/11 03:49:09;;;;;;;22.83;15.10;;;7.70;95.00;;;;;;5075750;28;20494;-57
2021/12/11 03:51:40;;;;;;;23.80;15.13;;;7.80;95.00;;;;;;5079608;28;20024;-57
2021/12/11 03:54:09;;;;;;;22.85;15.82;;;7.70;95.00;;;;;;5075255;28;20484;-57
2021/12/11 03:56:36;;;;;;;23.67;16.45;;;7.70;95.20;;;;;;5075232;28;20025;-57
2021/12/11 03:59:08;;;;;;;20.88;14.60;;;7.70;95.20;;;;;;5075349;28;20056;-57
2021/12/11 04:01:38;;;;;;;22.02;16.45;;;7.70;95.20;;;;;;5081562;28;20111;-54
2021/12/11 04:04:16;;;;;;;23.45;15.90;;;7.70;95.30;;;;;;5082376;28;20459;-55
2021/12/11 04:06:42;;;;;;;24.50;16.67;;;7.70;95.40;;;;;;5083338;28;20058;-58
2021/12/11 04:09:12;;;;;;;21.27;14.88;;;7.70;95.30;;;;;;5085655;28;20024;-58
2021/12/11 04:11:39;;;;;;;21.50;15.20;;;7.70;95.40;;;;;;5084053;28;20032;-56
2021/12/11 04:14:11;;;;;;;23.08;15.23;;;7.70;95.40;;;;;;5087656;28;20028;-57
2021/12/11 04:16:37;;;;;;;23.65;16.20;;;7.70;95.40;;;;;;5083761;28;20028;-58
2021/12/11 04:19:04;;;;;;;21.17;14.68;;;7.70;95.40;;;;;;5083771;28;20150;-59
2021/12/11 04:21:30;;;;;;;21.33;15.73;;;7.70;95.30;;;;;;5085776;28;20463;-55
2021/12/11 04:23:56;;;;;;;25.35;16.13;;;7.70;95.20;;;;;;5085553;28;20100;-55
2021/12/11 04:26:22;;;;;;;19.08;14.93;;;7.70;95.10;;;;;;5085763;28;20070;-59
2021/12/11 04:28:49;;;;;;;21.13;14.93;;;7.70;95.10;;;;;;5085197;28;20464;-59
2021/12/11 04:31:22;;;;;;;20.98;14.43;;;7.70;95.10;;;;;;5085835;28;20023;-59
2021/12/11 04:33:51;;;;;;;22.38;15.50;;;7.70;95.00;;;;;;5084211;28;20021;-57
2021/12/11 04:36:24;;;;;;;24.05;16.08;;;7.70;95.00;;;;;;5084267;28;20024;-59
2021/12/11 04:38:51;;;;;;;21.02;15.52;;;7.70;95.10;;;;;;5087176;28;20051;-58
2021/12/11 04:41:24;;;;;;;22.70;16.02;;;7.70;95.10;;;;;;5085552;28;20367;-56
2021/12/11 04:43:52;;;;;;;20.58;14.95;;;7.70;95.20;;;;;;5083337;28;20107;-55
2021/12/11 04:46:18;;;;;;;19.23;14.40;;;7.60;95.20;;;;;;5084335;28;20027;-56
2021/12/11 04:51:38;;;;;;;21.70;14.20;;;7.60;95.20;;;;;;5082793;28;20853;-59
2021/12/11 04:59:41;;;;;;;26.33;18.15;;;7.60;95.20;;;;;;5082662;28;19961;-57
2021/12/11 05:10:10;;;;;;;29.00;21.60;;;7.60;95.20;;;;;;5084278;28;20115;-58
2021/12/11 05:12:35;;;;;;;30.07;21.50;;;7.60;95.30;;;;;;5081996;28;20031;-58
2021/12/11 05:15:05;;;;;;;25.88;18.00;;;7.60;95.30;;;;;;5085229;28;20067;-59
2021/12/11 05:17:31;;;;;;;27.33;20.02;;;7.60;95.40;;;;;;5081954;28;20338;-57
2021/12/11 05:19:56;;;;;;;28.55;21.08;;;7.60;95.20;;;;;;5083368;28;20114;-58
2021/12/11 05:22:22;;;;;;;33.13;22.13;;;7.60;95.20;;;;;;5087767;28;20773;-57
2021/12/11 05:24:52;;;;;;;32.50;22.67;;;7.60;95.10;;;;;;5081510;28;20617;-57
2021/12/11 05:27:18;;;;;;;32.63;22.17;;;7.60;95.30;;;;;;5081633;28;20457;-57
2021/12/11 05:29:44;;;;;;;28.23;19.48;;;7.60;95.40;;;;;;5084301;28;20035;-57
2021/12/11 05:32:14;;;;;;;27.48;19.67;;;7.50;95.40;;;;;;5081409;28;20028;-53
2021/12/11 05:34:41;;;;;;;29.70;19.73;;;7.50;95.40;;;;;;5083166;28;20032;-57
2021/12/11 05:37:06;;;;;;;27.42;20.85;;;7.60;95.50;;;;;;5084596;28;20024;-57
2021/12/11 05:39:32;;;;;;;27.95;19.60;;;7.60;95.30;;;;;;5082690;28;20077;-55
2021/12/11 05:41:58;;;;;;;29.65;20.67;;;7.60;95.40;;;;;;5081749;28;20058;-55
2021/12/11 05:44:24;;;;;;;28.95;20.90;;;7.60;95.30;;;;;;5079145;28;20459;-56
2021/12/11 05:46:52;;;;;;;31.13;21.95;;;7.60;95.20;;;;;;5083654;28;20028;-57
2021/12/11 05:49:19;;;;;;;34.03;21.90;;;7.60;95.20;;;;;;5085097;28;20035;-58
2021/12/11 05:51:47;;;;;;;28.25;20.20;;;7.60;95.30;;;;;;5093420;28;20028;-56
2021/12/11 05:54:22;;;;;;;29.00;21.38;;;7.60;95.30;;;;;;5093449;28;20028;-59
2021/12/11 05:56:48;;;;;;;33.83;21.25;;;7.60;95.10;;;;;;5090675;28;20032;-57
2021/12/11 05:59:17;;;;;;;26.45;19.30;;;7.60;95.20;;;;;;5073201;28;20538;-58
2021/12/11 06:02:17;;;;;;;26.63;19.48;;;7.60;95.20;;;;;;5089264;28;20282;-58
2021/12/11 06:04:45;;;;;;;24.33;18.10;;;7.60;95.10;;;;;;5092098;28;20253;-59
2021/12/11 06:07:13;;;;;;;27.42;19.70;;;7.60;95.20;;;;;;5093142;28;20060;-57
2021/12/11 06:09:42;;;;;;;24.00;17.85;;;7.60;95.10;;;;;;5093154;28;20481;-58
2021/12/11 06:12:11;;;;;;;26.92;18.42;;;7.60;95.10;;;;;;5092453;28;20023;-57
2021/12/11 06:14:38;;;;;;;27.58;18.77;;;7.60;95.00;;;;;;5075430;28;20190;-57
2021/12/11 06:17:07;;;;;;;25.75;18.23;;;7.50;95.10;;;;;;5072920;28;20107;-58
2021/12/11 06:19:33;;;;;;;26.52;18.67;;;7.50;95.00;;;;;;5093001;28;20016;-58
2021/12/11 06:22:00;;;;;;;24.00;16.83;;;7.50;95.00;;;;;;5092860;28;20495;-58
2021/12/11 06:24:27;;;;;;;25.38;18.73;;;7.50;95.00;;;;;;5092972;28;20044;-59
2021/12/11 06:26:54;;;;;;;26.30;19.30;;;7.50;94.90;;;;;;5092875;28;20391;-57
2021/12/11 06:29:21;;;;;;;23.30;17.02;;;7.50;94.90;;;;;;5088700;28;20476;-57
2021/12/11 06:31:48;;;;;;;25.33;16.80;;;7.50;95.00;;;;;;5092158;28;20039;-58
2021/12/11 06:34:14;;;;;;;24.83;17.65;;;7.50;94.90;;;;;;5083457;28;20035;-58
2021/12/11 06:36:41;;;;;;;22.33;15.57;;;7.50;94.80;;;;;;5072560;28;20031;-57
2021/12/11 06:39:11;;;;;;;22.63;17.05;;;7.50;94.80;;;;;;5073530;28;20027;-56
2021/12/11 06:41:40;;;;;;;26.02;16.25;;;7.50;94.70;;;;;;5076961;28;20029;-56
2021/12/11 06:44:07;;;;;;;26.10;17.08;;;7.40;94.70;;;;;;5081103;28;20225;-56
2021/12/11 06:46:33;;;;;;;23.80;17.17;;;7.40;94.90;;;;;;5076595;28;20087;-54
2021/12/11 06:49:00;;;;;;;25.55;17.95;;;7.40;94.90;;;;;;5076440;28;20107;-58
2021/12/11 06:51:26;;;;;;;24.48;16.20;;;7.30;95.00;;;;;;5084599;28;20477;-55
2021/12/11 06:53:58;;;;;;;24.23;16.40;;;7.30;95.10;;;;;;5096939;28;20035;-56
2021/12/11 06:56:25;;;;;;;26.65;17.85;;;7.30;95.10;;;;;;5096403;28;20077;-58
2021/12/11 06:58:52;;;;;;;25.05;18.25;;;7.30;95.20;;;;;;5096500;28;20059;-54
2021/12/11 07:01:20;;;;;;;24.27;16.40;;;7.30;95.20;;;;;;5093546;28;20028;-55
2021/12/11 07:03:46;;;;;;;25.92;17.63;;;7.30;95.10;;;;;;5076247;28;20031;-57
2021/12/11 07:06:12;;;;;;;28.00;17.20;;;7.30;95.00;;;;;;5076043;28;20025;-58
2021/12/11 07:08:39;;;;;;;20.00;15.35;;;7.30;95.00;;;;;;5076161;28;20484;-54
2021/12/11 07:11:08;;;;;;;24.33;16.15;;;7.30;95.00;;;;;;5076240;28;20376;-59
2021/12/11 07:13:34;;;;;;;24.05;16.92;;;7.30;94.90;;;;;;5076105;28;20055;-58
2021/12/11 07:16:00;;;;;;;22.38;16.50;;;7.30;95.00;;;;;;5082115;28;20028;-57
2021/12/11 07:18:27;;;;;;;24.42;17.23;;;7.20;94.90;;;;;;5092096;28;20024;-57
2021/12/11 07:20:54;;;;;;;25.63;16.67;;;7.20;95.00;;;;;;5075501;28;20034;-59
2021/12/11 07:23:20;;;;;;;25.63;17.30;;;7.20;95.00;;;;;;5082035;28;20035;-55
2021/12/11 07:26:00;;;;;;;25.73;16.88;;;7.20;95.00;;;;;;5075586;28;20021;-56
2021/12/11 07:28:26;;;;;;;26.08;16.95;;;7.20;95.00;;;;;;5080225;28;20024;-55
2021/12/11 07:30:55;;;;;;;23.80;16.80;;;7.20;95.00;;;;;;5081095;28;20032;-59
2021/12/11 07:33:21;;;;;;;24.02;16.65;;;7.20;95.00;;;;;;5093380;28;20372;-58
2021/12/11 07:35:48;;;;;;;23.88;16.60;;;7.20;95.00;;;;;;5095570;28;20414;-55
2021/12/11 07:38:14;;;;;;;22.90;16.88;;;7.20;94.80;;;;;;5095224;28;20073;-57
2021/12/11 07:40:46;;;;;;;28.02;16.70;;;7.20;94.80;;;;;;5076183;28;20016;-55
2021/12/11 07:43:12;;;;;;;23.35;16.27;;;7.20;94.60;;;;;;5075789;28;20074;-58
2021/12/11 07:45:39;;;;;;;21.17;15.25;;;7.20;94.60;;;;;;5078840;28;20024;-55
2021/12/11 07:48:06;;;;;;;21.67;15.63;;;7.20;94.50;;;;;;5078998;28;20575;-58
2021/12/11 07:50:32;;;;;;;21.60;15.88;;;7.20;94.50;;;;;;5093148;28;20093;-58
2021/12/11 07:52:58;;;;;;;25.55;16.73;;;7.20;94.50;;;;;;5095437;28;20056;-58
2021/12/11 07:55:24;;;;;;;24.70;16.73;;;7.20;94.40;;;;;;5092925;28;20034;-57
2021/12/11 07:57:51;;;;;;;25.92;16.88;;;7.20;94.40;;;;;;5075068;28;20028;-59
2021/12/11 08:00:21;;;;;;;26.48;17.83;;;7.20;94.40;;;;;;5075489;28;20035;-57
2021/12/11 08:02:47;;;;;;;26.10;16.58;;;7.10;94.40;;;;;;5074594;28;20012;-57
2021/12/11 08:05:13;;;;;;;24.58;15.18;;;7.10;94.40;;;;;;5087599;28;20383;-56
2021/12/11 08:07:40;;;;;;;20.65;14.57;;;7.10;94.40;;;;;;5087724;28;20020;-58
2021/12/11 08:10:09;;;;;;;21.08;14.35;;;7.10;94.40;;;;;;5092454;28;20479;-58
2021/12/11 08:12:35;;;;;;;21.42;14.43;;;7.10;94.50;;;;;;5074709;28;20036;-58
2021/12/11 08:15:02;;;;;;;23.15;15.40;;;7.10;94.60;;;;;;5074783;28;20081;-56
2021/12/11 08:17:28;;;;;;;22.42;14.55;;;7.00;94.80;;;;;;5074593;28;20021;-59
2021/12/11 08:19:53;;;;;;;23.63;15.30;;;7.00;95.00;;;;;;5074743;28;20015;-57
2021/12/11 08:22:19;;;;;;;34.25;17.60;;;7.00;95.20;;;;;;5074432;28;20048;-58
2021/12/11 08:24:45;;;;;;;23.92;16.35;;;6.90;95.30;;;;;;5074479;28;20027;-59
2021/12/11 08:27:17;;;;;;;20.30;14.35;;;6.90;95.50;;;;;;5078723;28;20432;-58
2021/12/11 08:29:46;;;;;;;22.15;15.20;;;6.90;95.70;;;;;;5074562;28;20028;-58
2021/12/11 08:32:13;;;;;;;25.25;17.35;;;6.80;95.90;;;;;;5077034;28;20468;-57
2021/12/11 08:34:40;;;;;;;27.35;16.83;;;6.80;96.20;;;;;;5093480;28;20464;-58
2021/12/11 08:37:08;;;;;;;26.65;16.20;;;6.70;96.40;;;;;;5078630;28;20445;-58
2021/12/11 08:39:35;;;;;;;23.45;15.93;;;6.70;96.60;;;;;;5094052;28;20017;-56
2021/12/11 08:42:02;;;;;;;23.02;16.77;;;6.70;96.80;;;;;;5092949;28;20073;-59
2021/12/11 08:44:34;;;;;;;24.90;16.40;;;6.70;96.70;;;;;;5073867;28;20028;-57
2021/12/11 08:47:04;;;;;;;23.58;16.50;;;6.60;96.80;;;;;;5083040;28;20033;-57
2021/12/11 08:49:32;;;;;;;25.73;16.65;;;6.60;97.00;;;;;;5089007;28;20035;-56
2021/12/11 08:52:20;;;;;;;23.95;15.57;;;6.60;97.20;;;;;;5078705;28;20064;-59
2021/12/11 08:54:46;;;;;;;23.02;15.45;;;6.60;97.40;;;;;;5074333;28;20074;-56
2021/12/11 08:57:15;;;;;;;25.10;16.15;;;6.50;97.60;;;;;;5087473;28;20383;-57
2021/12/11 08:59:45;;;;;;;22.90;15.68;;;6.60;97.70;;;;;;5078272;28;20025;-59
2021/12/11 09:02:25;;;;;;;28.20;16.73;;;6.50;97.70;;;;;;5076008;28;20031;-58
2021/12/11 09:04:56;;;;;;;24.42;15.98;;;6.50;97.80;;;;;;5073026;28;20021;-59
2021/12/11 09:07:31;;;;;;;26.33;16.77;;;6.50;97.80;;;;;;5089215;28;20028;-55
2021/12/11 09:10:16;;;;;;;25.13;16.60;;;6.50;97.80;;;;;;5093802;28;20032;-57
2021/12/11 09:12:50;;;;;;;23.48;15.75;;;6.60;97.80;;;;;;5093137;28;20031;-55
2021/12/11 09:15:27;;;;;;;25.88;16.02;;;6.50;97.80;;;;;;5091500;28;20353;-56
2021/12/11 09:18:01;;;;;;;26.17;16.27;;;6.50;97.90;;;;;;5091256;28;20032;-57
2021/12/11 09:20:42;;;;;;;23.80;17.05;;;6.50;98.10;;;;;;5077979;28;20043;-54
2021/12/11 09:23:28;;;;;;;25.73;15.20;;;6.40;98.10;;;;;;5073321;28;20040;-55
2021/12/11 09:26:04;;;;;;;23.40;15.45;;;6.40;98.10;;;;;;5080136;28;20028;-59
2021/12/11 09:28:43;;;;;;;24.10;15.55;;;6.50;98.20;;;;;;5085045;28;20411;-59
2021/12/11 09:31:32;;;;;;;26.60;15.68;;;6.50;98.00;;;;;;5091628;28;20486;-59
2021/12/11 09:34:05;;;;;;;23.63;15.15;;;6.50;98.00;;;;;;5073530;28;20027;-58
2021/12/11 09:36:36;;;;;;;22.80;14.40;;;6.50;98.00;;;;;;5073305;28;20033;-56
2021/12/11 09:39:26;;;;;;;21.25;14.05;;;6.50;98.00;;;;;;5073492;28;20021;-56
2021/12/11 09:41:52;;;;;;;20.00;13.18;;;6.60;97.90;;;;;;5073214;28;20025;-58
2021/12/11 09:44:31;;;;;;;23.50;14.32;;;6.60;98.10;;;;;;5079668;28;20027;-58
2021/12/11 09:47:02;;;;;;;19.45;13.88;;;6.70;97.50;;;;;;5093574;28;20035;-57
2021/12/11 09:49:32;;;;;;;19.23;13.37;;;6.70;97.50;;;;;;5092903;28;20028;-56
2021/12/11 09:52:04;;;;;;;20.42;13.52;;;6.70;97.40;;;;;;5092845;28;20028;-57
2021/12/11 09:54:35;;;;;;;20.58;13.68;;;6.70;97.30;;;;;;5077201;28;20066;-56
2021/12/11 09:57:05;;;;;;;20.58;13.02;;;6.70;97.20;;;;;;5073026;28;20035;-58
2021/12/11 09:59:34;;;;;;;20.13;13.45;;;6.70;97.30;;;;;;5073278;28;20435;-56
2021/12/11 10:02:04;;;;;;;19.70;12.68;;;6.70;97.30;;;;;;5072961;28;20024;-55
2021/12/11 10:04:58;;;;;;;18.63;13.07;;;6.70;97.40;;;;;;5073054;28;20031;-55
2021/12/11 10:07:33;;;;;;;20.77;13.85;;;6.70;97.30;;;;;;5069060;28;20048;-56
2021/12/11 10:10:09;;;;;;;18.02;13.13;;;6.70;97.30;;;;;;5073200;28;20102;-54
2021/12/11 10:12:39;;;;;;;18.95;12.48;;;6.70;97.30;;;;;;5073131;28;20387;-57
2021/12/11 10:15:21;;;;;;;23.33;14.13;;;6.60;97.60;;;;;;5072467;28;20033;-54
2021/12/11 10:17:52;;;;;;;21.05;12.90;;;6.60;97.40;;;;;;5072810;28;20029;-57
2021/12/11 10:20:29;;;;;;;21.25;13.13;;;6.60;97.40;;;;;;5083374;28;20020;-58
2021/12/11 10:22:58;;;;;;;19.35;13.50;;;6.60;97.50;;;;;;5087755;28;20048;-58
2021/12/11 10:25:30;;;;;;;22.73;11.80;;;6.60;97.60;;;;;;5092936;28;20107;-58
2021/12/11 10:27:58;;;;;;;19.35;12.15;;;6.60;97.60;;;;;;5091216;28;20032;-57
2021/12/11 10:30:26;;;;;;;19.63;12.75;;;6.60;97.70;;;;;;5093179;28;20093;-58
2021/12/11 10:32:53;;;;;;;16.58;10.80;;;6.60;97.80;;;;;;5092866;28;20031;-57
2021/12/11 10:35:25;;;;;;;23.55;13.10;;;6.60;97.90;;;;;;5093291;28;20039;-59
2021/12/11 10:37:52;;;;;;;20.85;11.52;;;6.60;97.90;;;;;;5091991;28;20020;-56
2021/12/11 10:40:26;;;;;;;18.90;12.15;;;6.60;97.90;;;;;;5075306;28;20016;-59
2021/12/11 10:43:05;;;;;;;17.13;11.20;;;6.70;98.10;;;;;;5072632;28;20103;-58
2021/12/11 10:45:33;;;;;;;21.15;12.98;;;6.70;98.00;;;;;;5092332;28;20024;-58
2021/12/11 10:48:04;;;;;;;17.10;11.45;;;6.70;97.90;;;;;;5093029;28;20388;-59
2021/12/11 10:50:38;;;;;;;18.85;13.05;;;6.70;97.80;;;;;;5091667;28;20103;-58
2021/12/11 10:53:07;;;;;;;14.85;11.15;;;6.70;97.80;;;;;;5093029;28;20035;-56
2021/12/11 10:55:34;;;;;;;15.73;11.75;;;6.70;97.80;;;;;;5087695;28;20036;-59
2021/12/11 10:58:05;;;;;;;15.50;11.30;;;6.70;97.80;;;;;;5092637;28;20103;-55
2021/12/11 11:00:47;;;;;;;17.75;11.45;;;6.70;97.80;;;;;;5092217;28;20104;-58
2021/12/11 11:03:15;;;;;;;16.60;11.95;;;6.70;98.00;;;;;;5077034;28;20142;-56
2021/12/11 11:05:42;;;;;;;16.98;12.05;;;6.70;98.10;;;;;;5088277;28;20322;-57
2021/12/11 11:08:09;;;;;;;15.05;11.32;;;6.80;98.10;;;;;;5092508;28;20109;-57
2021/12/11 11:10:42;;;;;;;16.67;10.82;;;6.90;98.00;;;;;;5084864;28;20046;-56
2021/12/11 11:13:12;;;;;;;15.82;10.90;;;6.90;97.80;;;;;;5071775;28;20112;-54
2021/12/11 11:15:40;;;;;;;15.73;10.35;;;6.90;97.40;;;;;;5072137;28;20021;-55
2021/12/11 11:18:08;;;;;;;19.70;11.88;;;6.90;97.20;;;;;;5081948;28;20029;-57
2021/12/11 11:20:41;;;;;;;16.27;11.52;;;7.00;97.10;;;;;;5081423;28;20030;-56
2021/12/11 11:23:08;;;;;;;17.50;11.32;;;6.90;97.10;;;;;;5081597;28;20513;-54
2021/12/11 11:25:40;;;;;;;19.38;13.07;;;6.90;97.30;;;;;;5082736;28;20460;-57
2021/12/11 11:28:10;;;;;;;17.10;12.23;;;6.90;97.30;;;;;;5086577;28;20027;-58
2021/12/11 11:30:42;;;;;;;16.35;12.02;;;7.00;97.30;;;;;;5081309;28;20021;-57
2021/12/11 11:33:10;;;;;;;20.02;12.68;;;7.00;97.20;;;;;;5084840;28;20371;-57
2021/12/11 11:35:42;;;;;;;19.05;12.45;;;7.00;97.10;;;;;;5081982;28;20090;-55
2021/12/11 11:38:13;;;;;;;17.80;12.93;;;7.00;97.10;;;;;;5089376;28;20116;-57
2021/12/11 11:40:41;;;;;;;20.23;13.65;;;7.00;97.00;;;;;;5095658;28;20025;-57
2021/12/11 11:43:06;;;;;;;18.77;13.35;;;7.00;96.80;;;;;;5080091;28;20357;-57
2021/12/11 11:45:33;;;;;;;16.40;11.73;;;7.00;96.80;;;;;;5078480;28;20073;-55
2021/12/11 11:47:59;;;;;;;17.27;12.18;;;7.00;96.70;;;;;;5076438;28;20078;-56
2021/12/11 11:50:31;;;;;;;18.58;12.18;;;7.00;96.80;;;;;;5092074;28;20032;-57
2021/12/11 11:52:57;;;;;;;18.15;12.75;;;7.00;96.70;;;;;;5091182;28;20039;-57
2021/12/11 11:55:29;;;;;;;23.38;14.02;;;7.00;96.80;;;;;;5095577;28;20032;-56
2021/12/11 11:57:56;;;;;;;19.98;13.75;;;7.00;96.60;;;;;;5095433;28;20110;-58
2021/12/11 12:00:35;;;;;;;19.48;13.65;;;7.00;96.60;;;;;;5095021;28;20376;-58
2021/12/11 12:03:01;;;;;;;21.65;13.50;;;7.00;96.70;;;;;;5095209;28;20063;-57
2021/12/11 12:05:29;;;;;;;18.75;13.23;;;6.90;96.80;;;;;;5095637;28;20016;-58
2021/12/11 12:07:55;;;;;;;24.55;15.00;;;6.90;96.80;;;;;;5094865;28;20054;-54
2021/12/11 12:10:27;;;;;;;17.17;12.88;;;6.90;96.90;;;;;;5095362;28;20032;-58
2021/12/11 12:12:54;;;;;;;16.20;11.82;;;6.90;97.00;;;;;;5095482;28;20176;-57
2021/12/11 12:15:32;;;;;;;16.25;12.02;;;7.00;96.90;;;;;;5095265;28;20024;-57
2021/12/11 12:17:58;;;;;;;21.17;13.95;;;7.00;96.80;;;;;;5095167;28;20158;-55
2021/12/11 12:20:25;;;;;;;15.38;11.02;;;7.00;96.60;;;;;;5094363;28;20021;-56
2021/12/11 12:22:52;;;;;;;20.23;13.73;;;7.00;96.60;;;;;;5093643;28;20500;-57
2021/12/11 12:25:18;;;;;;;16.65;13.27;;;7.00;96.60;;;;;;5088481;28;20366;-58
2021/12/11 12:27:45;;;;;;;17.70;13.32;;;7.00;96.50;;;;;;5074701;28;20476;-57
2021/12/11 12:30:39;;;;;;;17.20;12.82;;;7.00;96.40;;;;;;5074992;28;20415;-55
2021/12/11 12:33:07;;;;;;;18.88;12.68;;;7.00;96.40;;;;;;5074691;28;20024;-57
2021/12/11 12:35:34;;;;;;;18.17;12.13;;;7.00;96.50;;;;;;5074510;28;20024;-54
2021/12/11 12:38:02;;;;;;;19.08;13.48;;;7.00;96.40;;;;;;5074375;28;20032;-55
2021/12/11 12:40:33;;;;;;;18.00;11.82;;;7.00;96.40;;;;;;5074503;28;20107;-56
2021/12/11 12:43:10;;;;;;;17.88;12.48;;;6.90;96.30;;;;;;5083308;28;20099;-54
2021/12/11 12:45:47;;;;;;;19.30;12.40;;;6.90;96.50;;;;;;5094887;28;20403;-57
2021/12/11 12:48:17;;;;;;;18.38;12.43;;;6.90;96.60;;;;;;5092987;28;20036;-57
2021/12/11 12:51:10;;;;;;;22.52;14.60;;;6.90;96.70;;;;;;5094518;28;20044;-56
2021/12/11 12:53:39;;;;;;;17.17;13.02;;;6.90;96.90;;;;;;5091339;28;20032;-56
2021/12/11 12:56:19;;;;;;;19.60;13.45;;;7.00;97.10;;;;;;5094447;28;20059;-58
2021/12/11 12:58:53;;;;;;;21.42;14.75;;;7.00;97.20;;;;;;5094096;28;20090;-57
2021/12/11 13:01:26;;;;;;;21.95;14.65;;;7.00;97.20;;;;;;5093734;28;20035;-54
2021/12/11 13:03:55;;;;;;;22.42;14.88;;;7.10;97.20;;;;;;5088002;28;20038;-56
2021/12/11 13:06:28;;;;;;;20.92;13.65;;;7.10;97.10;;;;;;5094099;28;20024;-56
2021/12/11 13:08:57;;;;;;;20.08;13.38;;;7.10;97.00;;;;;;5094451;28;20032;-57
2021/12/11 13:11:43;;;;;;;19.77;13.48;;;7.10;96.90;;;;;;5094118;28;20024;-56